createdAt,value
2022-09-09T00:00:51.237Z,99.90
2022-09-09T00:03:38.779Z,99.90
2022-09-09T00:06:13.079Z,99.90
2022-09-09T00:08:48.567Z,99.90
2022-09-09T00:11:22.034Z,99.90
2022-09-09T00:13:57.266Z,98.30
2022-09-09T00:16:31.938Z,99.90
2022-09-09T00:19:07.017Z,99.90
2022-09-09T00:21:39.909Z,98.40
2022-09-09T00:24:15.088Z,98.00
2022-09-09T00:26:47.669Z,98.20
2022-09-09T00:29:24.444Z,99.90
2022-09-09T00:31:58.775Z,97.70
2022-09-09T00:34:30.427Z,97.60
2022-09-09T00:37:01.739Z,98.70
2022-09-09T00:39:35.871Z,99.90
2022-09-09T00:42:11.824Z,97.20
2022-09-09T00:44:49.284Z,97.10
2022-09-09T00:47:24.145Z,96.80
2022-09-09T00:50:01.881Z,96.70
2022-09-09T00:52:39.868Z,96.90
2022-09-09T00:55:16.089Z,96.80
2022-09-09T00:57:47.369Z,96.40
2022-09-09T01:00:25.810Z,96.50
2022-09-09T01:03:00.577Z,98.60
2022-09-09T01:05:34.611Z,97.90
2022-09-09T01:08:07.413Z,99.70
2022-09-09T01:10:43.261Z,97.30
2022-09-09T01:13:17.868Z,97.10
2022-09-09T01:15:54.245Z,99.90
2022-09-09T01:18:30.267Z,98.30
2022-09-09T01:21:08.013Z,97.10
2022-09-09T01:23:50.284Z,99.90
2022-09-09T01:26:36.138Z,98.00
2022-09-09T01:29:12.438Z,97.70
2022-09-09T01:31:46.767Z,97.40
2022-09-09T01:34:18.440Z,97.00
2022-09-09T01:36:54.041Z,99.90
2022-09-09T01:39:47.009Z,97.20
2022-09-09T01:42:22.924Z,97.10
2022-09-09T01:44:55.636Z,96.80
2022-09-09T01:47:26.723Z,96.70
2022-09-09T01:50:14.913Z,96.80
2022-09-09T01:52:46.464Z,96.70
2022-09-09T01:55:19.912Z,97.20
2022-09-09T01:57:58.825Z,96.60
2022-09-09T02:00:30.175Z,96.50
2022-09-09T02:03:09.345Z,96.60
2022-09-09T02:05:55.527Z,96.60
2022-09-09T02:08:33.047Z,96.60
2022-09-09T02:11:10.796Z,96.70
2022-09-09T02:13:52.337Z,96.60
2022-09-09T02:16:26.872Z,97.40
2022-09-09T02:19:00.316Z,98.10
2022-09-09T02:21:40.815Z,99.90
2022-09-09T02:24:12.588Z,99.90
2022-09-09T02:26:52.492Z,99.90
2022-09-09T02:29:28.912Z,98.10
2022-09-09T02:32:04.145Z,98.20
2022-09-09T02:34:39.758Z,97.30
2022-09-09T02:37:12.171Z,99.90
2022-09-09T02:39:45.536Z,98.00
2022-09-09T02:42:20.339Z,99.60
2022-09-09T02:44:53.754Z,99.30
2022-09-09T02:47:30.036Z,97.90
2022-09-09T02:50:11.892Z,99.90
2022-09-09T02:52:49.911Z,98.40
2022-09-09T02:55:22.776Z,98.80
2022-09-09T02:57:56.496Z,98.10
2022-09-09T03:00:31.241Z,97.60
2022-09-09T03:03:05.859Z,97.50
2022-09-09T03:05:38.145Z,98.00
2022-09-09T03:08:10.498Z,97.30
2022-09-09T03:10:41.261Z,98.20
2022-09-09T03:13:13.363Z,97.30
2022-09-09T03:15:47.685Z,97.50
2022-09-09T03:18:21.295Z,97.30
2022-09-09T03:20:56.532Z,97.20
2022-09-09T03:23:27.909Z,97.20
2022-09-09T03:25:59.772Z,97.10
2022-09-09T03:28:40.017Z,97.20
2022-09-09T03:31:14.068Z,97.00
2022-09-09T03:33:46.210Z,97.10
2022-09-09T03:36:16.871Z,97.20
2022-09-09T03:38:48.311Z,97.10
2022-09-09T03:41:19.663Z,97.30
2022-09-09T03:43:51.426Z,97.40
2022-09-09T03:46:26.041Z,97.10
2022-09-09T03:48:58.433Z,97.30
2022-09-09T03:51:29.257Z,97.30
2022-09-09T03:54:01.172Z,97.20
2022-09-09T03:56:33.895Z,97.60
2022-09-09T03:59:05.270Z,97.40
2022-09-09T04:01:38.877Z,97.50
2022-09-09T04:04:10.117Z,97.50
2022-09-09T04:06:41.037Z,97.70
2022-09-09T04:09:12.142Z,97.70
2022-09-09T04:11:42.938Z,97.50
2022-09-09T04:14:14.164Z,97.50
2022-09-09T04:16:47.489Z,97.40
2022-09-09T04:19:19.906Z,97.60
2022-09-09T04:21:51.177Z,97.80
2022-09-09T04:24:22.805Z,97.70
2022-09-09T04:26:54.260Z,97.60
2022-09-09T04:29:25.582Z,97.60
2022-09-09T04:31:59.263Z,97.50
2022-09-09T04:34:31.644Z,97.80
2022-09-09T04:37:02.492Z,97.70
2022-09-09T04:39:33.678Z,97.60
2022-09-09T04:42:05.336Z,97.80
2022-09-09T04:44:36.523Z,97.70
2022-09-09T04:47:10.700Z,97.80
2022-09-09T04:49:42.325Z,98.10
2022-09-09T04:52:13.533Z,97.90
2022-09-09T04:54:45.792Z,97.80
2022-09-09T04:57:18.923Z,98.00
2022-09-09T04:59:51.404Z,97.80
2022-09-09T05:02:28.510Z,97.20
2022-09-09T05:05:02.506Z,97.60
2022-09-09T05:07:33.248Z,98.00
2022-09-09T05:10:05.866Z,97.80
2022-09-09T05:12:37.330Z,97.90
2022-09-09T05:15:09.566Z,97.90
2022-09-09T05:17:43.725Z,97.80
2022-09-09T05:20:17.478Z,97.90
2022-09-09T05:22:48.503Z,97.80
2022-09-09T05:25:20.868Z,98.50
2022-09-09T05:27:51.835Z,98.40
2022-09-09T05:30:23.916Z,98.90
2022-09-09T05:32:59.474Z,99.90
2022-09-09T05:35:31.100Z,98.50
2022-09-09T05:38:03.242Z,99.60
2022-09-09T05:40:34.424Z,99.20
2022-09-09T05:43:05.804Z,99.00
2022-09-09T05:45:37.420Z,99.40
2022-09-09T05:48:10.995Z,99.90
2022-09-09T05:50:42.539Z,99.90
2022-09-09T05:53:13.798Z,99.90
2022-09-09T05:55:46.969Z,99.90
2022-09-09T05:58:18.562Z,99.90
2022-09-09T06:00:49.719Z,99.90
2022-09-09T06:03:24.726Z,99.90
2022-09-09T06:06:00.978Z,99.90
2022-09-09T06:08:32.372Z,99.90
2022-09-09T06:11:07.122Z,99.90
2022-09-09T06:13:38.615Z,99.90
2022-09-09T06:16:12.638Z,99.90
2022-09-09T06:18:47.030Z,99.90
2022-09-09T06:21:19.788Z,99.90
2022-09-09T06:23:52.504Z,99.90
2022-09-09T06:26:25.745Z,99.90
2022-09-09T06:28:59.048Z,99.90
2022-09-09T06:31:31.814Z,99.90
2022-09-09T06:34:09.900Z,99.90
2022-09-09T06:36:47.022Z,99.90
2022-09-09T06:39:17.894Z,99.90
2022-09-09T06:41:49.808Z,99.90
2022-09-09T06:44:43.374Z,99.90
2022-09-09T06:47:18.395Z,99.90
2022-09-09T06:49:52.938Z,99.90
2022-09-09T06:52:25.931Z,99.90
2022-09-09T06:54:59.802Z,99.90
2022-09-09T06:57:37.309Z,99.90
2022-09-09T07:00:13.261Z,99.90
2022-09-09T07:02:45.571Z,99.90
2022-09-09T07:05:20.393Z,99.90
2022-09-09T07:07:51.599Z,99.90
2022-09-09T07:10:24.073Z,99.90
2022-09-09T07:12:56.010Z,99.90
2022-09-09T07:15:29.105Z,99.90
2022-09-09T07:18:04.526Z,99.90
2022-09-09T07:20:38.333Z,99.90
2022-09-09T07:23:09.537Z,98.60
2022-09-09T07:25:40.654Z,99.90
2022-09-09T07:28:11.812Z,98.70
2022-09-09T07:30:43.877Z,97.80
2022-09-09T07:33:15.344Z,98.30
2022-09-09T07:35:48.623Z,97.90
2022-09-09T07:38:19.893Z,97.40
2022-09-09T13:45:42.058Z,85.00
2022-09-09T13:48:14.808Z,85.70
2022-09-09T13:50:45.487Z,86.50
2022-09-09T13:53:16.577Z,87.30
2022-09-09T13:55:51.696Z,85.70
2022-09-09T13:58:25.935Z,83.20
2022-09-09T14:01:01.833Z,78.70
2022-09-09T14:03:35.804Z,81.00
2022-09-09T14:06:06.837Z,81.90
2022-09-09T14:08:39.824Z,80.90
2022-09-09T14:11:15.103Z,83.40
2022-09-09T14:13:46.221Z,80.50
2022-09-09T14:16:19.886Z,81.20
2022-09-09T14:18:51.684Z,81.30
2022-09-09T14:21:22.797Z,82.00
2022-09-09T14:23:54.015Z,79.50
2022-09-09T14:26:25.156Z,79.40
2022-09-09T14:28:56.482Z,79.30
2022-09-09T14:31:30.396Z,78.20
2022-09-09T14:34:01.748Z,80.20
2022-09-09T14:36:32.561Z,79.60
2022-09-09T14:39:03.571Z,79.50
2022-09-09T14:41:34.814Z,76.70
2022-09-09T14:44:06.387Z,77.60
2022-09-09T14:46:41.849Z,72.60
2022-09-09T14:49:13.945Z,76.50
2022-09-09T14:51:44.741Z,77.80
2022-09-09T14:54:15.975Z,77.10
2022-09-09T14:56:46.689Z,77.50
2022-09-09T14:59:17.829Z,78.40
2022-09-09T15:01:51.654Z,75.80
2022-09-09T15:04:23.170Z,77.30
2022-09-09T15:06:55.296Z,73.40
2022-09-09T15:09:26.673Z,77.10
2022-09-09T15:11:57.608Z,77.40
2022-09-09T15:14:29.031Z,77.00
2022-09-09T15:17:02.513Z,74.60
2022-09-09T15:19:33.691Z,75.60
2022-09-09T15:22:04.514Z,75.30
2022-09-09T15:24:35.682Z,78.70
2022-09-09T15:27:06.763Z,77.20
2022-09-09T15:29:39.528Z,75.70
2022-09-09T15:32:12.966Z,75.00
2022-09-09T15:34:44.007Z,78.80
2022-09-09T15:37:16.577Z,80.60
2022-09-09T15:39:47.768Z,80.80
2022-09-09T15:42:18.560Z,79.10
2022-09-09T15:44:49.819Z,77.80
2022-09-09T15:47:23.232Z,75.50
2022-09-09T15:49:54.358Z,75.70
2022-09-09T15:52:25.141Z,79.70
2022-09-09T15:54:56.148Z,79.40
2022-09-09T15:57:28.089Z,80.10
2022-09-09T16:00:00.673Z,81.90
2022-09-09T16:02:34.391Z,82.10
2022-09-09T16:05:05.962Z,81.50
2022-09-09T16:07:37.230Z,83.10
2022-09-09T16:10:09.048Z,83.20
2022-09-09T16:12:40.627Z,84.10
2022-09-09T16:15:11.719Z,85.30
2022-09-09T16:17:45.827Z,85.40
2022-09-09T16:20:17.069Z,85.70
2022-09-09T16:22:47.782Z,86.20
2022-09-09T16:25:19.798Z,86.70
2022-09-09T16:27:50.564Z,86.50
2022-09-09T16:30:21.646Z,86.30
2022-09-09T16:32:55.413Z,86.80
2022-09-09T16:35:26.449Z,86.80
2022-09-09T16:37:58.407Z,86.90
2022-09-09T16:40:31.873Z,86.80
2022-09-09T16:43:02.574Z,87.20
2022-09-09T16:45:34.042Z,87.40
2022-09-09T16:48:07.835Z,87.50
2022-09-09T16:50:39.382Z,87.70
2022-09-09T16:53:10.842Z,87.80
2022-09-09T16:55:43.612Z,87.80
2022-09-09T16:58:14.913Z,88.20
2022-09-09T17:00:47.712Z,88.40
2022-09-09T17:03:22.158Z,88.50
2022-09-09T17:05:53.203Z,89.10
2022-09-09T17:08:24.017Z,89.40
2022-09-09T17:10:55.201Z,89.80
2022-09-09T17:13:26.275Z,90.00
2022-09-09T17:16:02.262Z,90.10
2022-09-09T17:18:36.353Z,90.20
2022-09-09T17:21:08.937Z,90.50
2022-09-09T17:23:40.357Z,90.60
2022-09-09T17:26:12.555Z,90.80
2022-09-09T17:28:44.140Z,90.90
2022-09-09T17:31:16.888Z,91.00
2022-09-09T17:33:51.476Z,91.10
2022-09-09T17:36:23.598Z,91.30
2022-09-09T17:38:54.877Z,91.50
2022-09-09T17:41:30.738Z,91.50
2022-09-09T17:44:01.673Z,91.80
2022-09-09T17:46:35.529Z,91.80
2022-09-09T17:49:10.205Z,91.90
2022-09-09T17:51:42.756Z,92.00
2022-09-09T17:54:15.307Z,92.20
2022-09-09T17:56:47.093Z,92.20
2022-09-09T17:59:18.909Z,92.60
2022-09-09T18:01:51.294Z,92.40
2022-09-09T18:04:25.118Z,92.60
2022-09-09T18:06:57.932Z,92.80
2022-09-09T18:09:50.428Z,93.10
2022-09-09T18:12:21.803Z,93.50
2022-09-09T18:14:54.344Z,93.30
2022-09-09T18:17:25.784Z,93.20
2022-09-09T18:19:59.476Z,93.20
2022-09-09T18:22:31.945Z,93.30
2022-09-09T18:25:03.112Z,93.30
2022-09-09T18:27:34.361Z,93.50
2022-09-09T18:30:05.359Z,93.70
2022-09-09T18:32:36.756Z,93.40
2022-09-09T18:35:11.188Z,93.60
2022-09-09T18:37:42.630Z,93.40
2022-09-09T18:40:13.712Z,93.30
2022-09-09T18:42:45.277Z,93.40
2022-09-09T18:45:16.289Z,93.30
2022-09-09T18:47:49.179Z,93.50
2022-09-09T18:50:22.907Z,93.40
2022-09-09T18:52:54.241Z,93.50
2022-09-09T18:55:25.764Z,93.70
2022-09-09T18:57:59.091Z,93.90
2022-09-09T19:00:32.951Z,93.70
2022-09-09T19:03:04.641Z,93.90
2022-09-09T19:05:38.428Z,93.70
2022-09-09T19:08:11.193Z,93.90
2022-09-09T19:10:42.434Z,93.70
2022-09-09T19:13:14.725Z,93.90
2022-09-09T19:15:46.118Z,94.00
2022-09-09T19:18:17.545Z,93.90
2022-09-09T19:20:51.500Z,94.10
2022-09-09T19:23:23.768Z,94.00
2022-09-09T19:25:55.899Z,93.50
2022-09-09T19:28:27.842Z,93.80
2022-09-09T19:30:59.208Z,93.90
2022-09-09T19:33:31.786Z,93.90
2022-09-09T19:36:07.436Z,93.60
2022-09-09T19:38:38.863Z,93.40
2022-09-09T19:41:11.078Z,94.30
2022-09-09T19:43:42.289Z,93.20
2022-09-09T19:46:14.634Z,94.20
2022-09-09T19:48:46.059Z,93.40
2022-09-09T19:51:20.519Z,93.50
2022-09-09T19:53:53.243Z,95.00
2022-09-09T19:56:25.137Z,95.00
2022-09-09T19:58:56.600Z,93.70
2022-09-09T20:01:28.353Z,93.70
2022-09-09T20:04:01.406Z,94.00
2022-09-09T20:06:35.853Z,93.80
2022-09-09T20:09:08.459Z,94.10
2022-09-09T20:11:39.381Z,93.90
2022-09-09T20:14:10.474Z,93.20
2022-09-09T20:16:41.572Z,94.40
2022-09-09T20:19:13.989Z,94.30
2022-09-09T20:21:48.568Z,94.80
2022-09-09T20:24:21.705Z,93.60
2022-09-09T20:26:52.544Z,94.20
2022-09-09T20:29:23.705Z,94.80
2022-09-09T20:31:54.506Z,94.70
2022-09-09T20:34:27.487Z,94.10
2022-09-09T20:37:02.897Z,93.30
2022-09-09T20:39:35.765Z,94.00
2022-09-09T20:42:07.950Z,94.00
2022-09-09T20:44:38.979Z,93.60
2022-09-09T20:47:09.744Z,93.70
2022-09-09T20:49:40.787Z,94.90
2022-09-09T20:52:15.364Z,93.80
2022-09-09T20:54:47.126Z,93.60
2022-09-09T20:57:22.202Z,94.80
2022-09-09T20:59:53.815Z,94.30
2022-09-09T21:02:24.602Z,94.00
2022-09-09T21:04:55.718Z,93.90
2022-09-09T21:07:29.153Z,93.90
2022-09-09T21:10:02.212Z,95.30
2022-09-09T21:12:33.264Z,94.20
2022-09-09T21:15:04.364Z,94.10
2022-09-09T21:17:35.469Z,93.90
2022-09-09T21:20:06.914Z,93.90
2022-09-09T21:22:40.780Z,94.00
2022-09-09T21:25:12.236Z,94.20
2022-09-09T21:27:42.997Z,94.20
2022-09-09T21:30:14.863Z,94.40
2022-09-09T21:32:45.625Z,93.90
2022-09-09T21:35:16.941Z,95.30
2022-09-09T21:37:50.385Z,95.00
2022-09-09T21:40:21.539Z,94.40
2022-09-09T21:42:52.627Z,94.50
2022-09-09T21:45:23.712Z,94.40
2022-09-09T21:47:55.024Z,94.50
2022-09-09T21:50:28.579Z,94.90
2022-09-09T21:53:02.023Z,94.50
2022-09-09T21:55:36.516Z,94.50
2022-09-09T21:58:07.443Z,94.20
2022-09-09T22:00:38.828Z,94.60
2022-09-09T22:03:09.715Z,94.80
2022-09-09T22:05:42.441Z,94.90
2022-09-09T22:08:18.190Z,96.10
2022-09-09T22:10:49.643Z,95.30
2022-09-09T22:13:20.404Z,95.00
2022-09-09T22:15:51.563Z,95.10
2022-09-09T22:18:22.343Z,95.00
2022-09-09T22:20:53.332Z,94.80
2022-09-09T22:23:26.708Z,94.70
2022-09-09T22:25:57.819Z,95.20
2022-09-09T22:28:30.097Z,94.70
2022-09-09T22:31:01.161Z,94.80
2022-09-09T22:33:31.873Z,94.70
2022-09-09T22:36:02.918Z,95.60
2022-09-09T22:38:37.135Z,95.20
2022-09-09T22:41:08.469Z,94.80
2022-09-09T22:43:39.299Z,94.90
2022-09-09T22:46:10.389Z,95.00
2022-09-09T22:48:41.283Z,94.90
2022-09-09T22:51:13.888Z,95.10
2022-09-09T22:53:47.880Z,95.20
2022-09-09T22:56:20.009Z,95.10
2022-09-09T22:58:51.071Z,95.20
2022-09-09T23:01:22.980Z,94.80
2022-09-09T23:03:54.192Z,95.00
2022-09-09T23:06:26.017Z,95.10
2022-09-09T23:09:00.323Z,95.00
2022-09-09T23:11:32.098Z,95.10
2022-09-09T23:14:04.215Z,95.10
2022-09-09T23:16:37.233Z,95.20
2022-09-09T23:19:10.165Z,95.20
2022-09-09T23:21:42.157Z,96.10
2022-09-09T23:24:16.883Z,95.80
2022-09-09T23:26:48.100Z,95.60
2022-09-09T23:29:19.379Z,95.50
2022-09-09T23:31:50.480Z,95.50
2022-09-09T23:34:21.241Z,95.40
2022-09-09T23:36:53.703Z,95.40
2022-09-09T23:39:27.334Z,95.50
2022-09-09T23:42:01.435Z,95.60
2022-09-09T23:44:34.241Z,95.40
2022-09-09T23:47:05.817Z,95.40
2022-09-09T23:49:37.397Z,95.70
2022-09-09T23:52:08.974Z,95.70
2022-09-09T23:54:42.264Z,95.50
2022-09-09T23:57:13.769Z,95.20
2022-09-09T23:59:44.512Z,95.20
